Time;durP1;ratioP1;P1;durP2;ratioP2;P2;SDS_P1;SDS_P2;PMS_P1;PMS_P2;Temp;Humidity;BMP_temperature;BMP_pressure;BME280_temperature;BME280_humidity;BME280_pressure;Samples;Min_cycle;Max_cycle;Signal;HPM_P1;HPM_P2
2021/03/31 00:00:34;;;;;;;0.90;0.60;;;23.10;43.70;;;;;;5127687;27;20470;-37
2021/03/31 00:03:23;;;;;;;1.20;0.90;;;23.00;43.60;;;;;;5130780;27;20080;-37
2021/03/31 00:05:49;;;;;;;0.85;0.77;;;23.10;43.70;;;;;;5131405;27;20066;-37
2021/03/31 00:08:16;;;;;;;0.75;0.70;;;23.00;43.60;;;;;;5119279;27;20122;-38
2021/03/31 00:10:48;;;;;;;0.98;0.60;;;23.00;43.60;;;;;;5120668;27;20040;-37
2021/03/31 00:13:16;;;;;;;1.35;1.00;;;23.00;43.60;;;;;;5102060;27;20486;-37
2021/03/31 00:15:44;;;;;;;1.08;0.80;;;23.00;43.60;;;;;;5109695;28;20040;-37
2021/03/31 00:18:13;;;;;;;1.08;0.93;;;23.00;43.60;;;;;;5098709;27;20078;-38
2021/03/31 00:20:40;;;;;;;1.02;0.90;;;23.00;43.70;;;;;;5098020;28;20058;-37
2021/03/31 00:23:09;;;;;;;1.52;0.80;;;23.00;43.60;;;;;;5112529;28;20044;-37
2021/03/31 00:25:36;;;;;;;1.05;0.90;;;23.00;43.70;;;;;;5098118;27;20072;-37
2021/03/31 00:28:04;;;;;;;1.23;0.80;;;23.00;43.60;;;;;;5114096;27;20122;-37
2021/03/31 00:30:31;;;;;;;0.82;0.70;;;23.00;43.60;;;;;;5097838;28;20052;-37
2021/03/31 00:32:58;;;;;;;1.83;0.93;;;23.00;43.60;;;;;;5107707;28;20047;-37
2021/03/31 00:35:25;;;;;;;1.08;0.70;;;23.00;43.70;;;;;;5114237;27;20054;-37
2021/03/31 00:37:52;;;;;;;0.95;0.77;;;23.00;43.60;;;;;;5108112;27;20077;-37
2021/03/31 00:40:21;;;;;;;0.77;0.75;;;23.00;43.60;;;;;;5099622;27;20052;-37
2021/03/31 00:42:48;;;;;;;0.80;0.60;;;23.00;43.60;;;;;;5101813;28;20058;-36
2021/03/31 00:45:16;;;;;;;1.20;0.90;;;23.00;43.70;;;;;;5111576;28;20085;-37
2021/03/31 00:47:43;;;;;;;0.88;0.55;;;23.00;43.60;;;;;;5096943;28;20444;-37
2021/03/31 00:50:12;;;;;;;1.20;0.80;;;23.00;43.60;;;;;;5113285;28;20078;-38
2021/03/31 00:52:42;;;;;;;1.00;0.85;;;23.00;43.60;;;;;;5112865;28;20052;-37
2021/03/31 00:55:11;;;;;;;1.40;1.00;;;23.00;43.70;;;;;;5114801;27;20056;-38
2021/03/31 00:57:39;;;;;;;1.15;0.88;;;23.00;43.60;;;;;;5114011;28;20043;-37
2021/03/31 01:00:07;;;;;;;1.10;0.82;;;23.00;43.70;;;;;;5113088;27;20048;-38
2021/03/31 01:02:34;;;;;;;1.38;0.90;;;23.00;43.70;;;;;;5112632;28;20059;-37
2021/03/31 01:05:04;;;;;;;1.50;0.80;;;23.00;43.60;;;;;;5114942;27;20407;-38
2021/03/31 01:07:31;;;;;;;0.80;0.60;;;23.00;43.70;;;;;;5107848;27;20084;-37
2021/03/31 01:09:57;;;;;;;0.82;0.73;;;23.00;43.70;;;;;;5113556;27;20415;-37
2021/03/31 01:12:50;;;;;;;0.93;0.80;;;23.00;43.70;;;;;;5117154;27;20062;-38
2021/03/31 01:15:54;;;;;;;1.33;0.90;;;23.00;43.70;;;;;;5133087;27;20074;-37
2021/03/31 01:18:36;;;;;;;1.55;1.02;;;23.00;43.70;;;;;;5030779;28;20058;-37
2021/03/31 01:21:41;;;;;;;1.05;0.80;;;23.00;43.70;;;;;;5029332;28;20128;-37
2021/03/31 01:24:36;;;;;;;1.13;0.77;;;23.00;43.70;;;;;;5027929;28;20505;-38
2021/03/31 01:27:20;;;;;;;1.38;1.00;;;23.00;43.70;;;;;;5030379;28;20053;-37
2021/03/31 01:29:49;;;;;;;1.25;0.95;;;23.00;43.70;;;;;;5013128;28;20045;-38
2021/03/31 01:32:33;;;;;;;1.02;0.88;;;23.00;43.70;;;;;;5029312;28;20143;-38
2021/03/31 01:35:11;;;;;;;1.27;0.75;;;23.00;43.70;;;;;;5030491;28;20433;-37
2021/03/31 01:37:42;;;;;;;1.60;1.02;;;23.00;43.70;;;;;;5031239;28;20084;-37
2021/03/31 01:40:12;;;;;;;1.25;0.88;;;23.00;43.70;;;;;;5030088;28;20049;-37
2021/03/31 01:42:44;;;;;;;0.98;0.88;;;23.00;43.70;;;;;;5029058;28;20056;-37
2021/03/31 01:45:13;;;;;;;1.10;0.70;;;23.00;43.80;;;;;;5030189;28;20053;-37
2021/03/31 01:47:43;;;;;;;2.28;1.20;;;23.00;43.70;;;;;;5030053;28;20041;-37
2021/03/31 01:50:11;;;;;;;0.75;0.70;;;23.00;43.70;;;;;;5015089;28;20049;-37
2021/03/31 01:52:43;;;;;;;1.42;0.90;;;22.90;43.60;;;;;;5077262;27;20134;-37
2021/03/31 01:55:16;;;;;;;1.10;0.90;;;23.00;43.70;;;;;;5132095;27;20126;-37
2021/03/31 01:57:44;;;;;;;1.15;0.85;;;23.00;43.70;;;;;;5132830;27;20053;-37
2021/03/31 02:00:18;;;;;;;0.95;0.88;;;22.90;43.60;;;;;;5114028;27;20070;-37
2021/03/31 02:02:50;;;;;;;1.50;0.85;;;22.90;43.60;;;;;;5131515;27;20100;-37
2021/03/31 02:05:18;;;;;;;2.03;1.10;;;22.90;43.60;;;;;;5133791;27;20060;-36
2021/03/31 02:07:46;;;;;;;1.42;0.98;;;22.90;43.60;;;;;;5113359;27;20047;-38
2021/03/31 02:10:15;;;;;;;1.67;1.15;;;22.90;43.60;;;;;;5133129;27;20054;-38
2021/03/31 02:12:43;;;;;;;1.33;1.00;;;22.90;43.70;;;;;;5131624;27;20104;-38
2021/03/31 02:15:13;;;;;;;1.38;0.90;;;22.90;44.20;;;;;;5133335;27;20399;-38
2021/03/31 02:17:41;;;;;;;1.65;1.00;;;23.00;43.70;;;;;;5130416;27;20130;-38
2021/03/31 02:20:08;;;;;;;1.42;1.00;;;22.90;43.60;;;;;;5130476;27;20043;-39
2021/03/31 02:22:36;;;;;;;1.33;0.88;;;22.90;43.60;;;;;;5133259;27;20046;-38
2021/03/31 02:25:05;;;;;;;1.33;0.90;;;22.90;43.60;;;;;;5133856;27;20054;-37
2021/03/31 02:27:33;;;;;;;1.35;0.85;;;23.00;43.70;;;;;;5117353;27;20088;-37
2021/03/31 02:30:00;;;;;;;1.73;0.90;;;22.90;43.60;;;;;;5122754;27;20087;-37
2021/03/31 02:32:28;;;;;;;0.88;0.75;;;22.90;43.60;;;;;;5115149;27;20047;-38
2021/03/31 02:34:56;;;;;;;1.80;1.20;;;22.90;43.60;;;;;;5118357;27;20480;-38
2021/03/31 02:37:24;;;;;;;0.90;0.82;;;22.90;43.60;;;;;;5115164;27;20100;-37
2021/03/31 02:39:52;;;;;;;0.73;0.70;;;22.90;43.60;;;;;;5115257;27;20058;-38
2021/03/31 02:42:21;;;;;;;1.75;0.90;;;22.90;43.60;;;;;;5124280;27;20047;-37
2021/03/31 02:44:51;;;;;;;1.08;0.95;;;22.90;43.60;;;;;;5125087;27;20043;-38
2021/03/31 02:47:24;;;;;;;1.42;0.95;;;22.90;43.60;;;;;;5100159;28;20097;-37
2021/03/31 02:49:54;;;;;;;2.13;1.05;;;22.90;43.60;;;;;;5117040;27;20047;-36
2021/03/31 02:52:23;;;;;;;1.80;0.98;;;22.90;43.60;;;;;;5116622;27;20052;-37
2021/03/31 02:54:51;;;;;;;0.95;0.80;;;22.90;43.60;;;;;;5098667;27;20490;-37
2021/03/31 02:57:20;;;;;;;1.08;0.80;;;22.90;43.60;;;;;;5114596;27;20110;-36
2021/03/31 02:59:48;;;;;;;1.10;0.90;;;22.90;43.70;;;;;;5132475;27;20039;-36
2021/03/31 03:02:17;;;;;;;1.33;0.82;;;22.90;43.60;;;;;;5131382;28;20047;-37
2021/03/31 03:05:03;;;;;;;1.25;0.82;;;22.90;43.60;;;;;;5115608;27;20043;-36
2021/03/31 03:07:31;;;;;;;1.10;0.85;;;22.90;43.60;;;;;;5113582;28;20143;-36
2021/03/31 03:09:58;;;;;;;1.10;1.00;;;22.90;43.70;;;;;;5133439;27;20047;-36
2021/03/31 03:12:26;;;;;;;1.30;0.90;;;22.90;43.60;;;;;;5110197;28;20088;-36
2021/03/31 03:14:53;;;;;;;1.45;1.00;;;22.90;43.70;;;;;;5114055;28;20079;-37
2021/03/31 03:17:21;;;;;;;1.35;1.13;;;22.90;43.60;;;;;;5124644;27;20064;-37
2021/03/31 03:19:49;;;;;;;1.30;0.98;;;22.90;43.70;;;;;;5116416;27;20097;-37
2021/03/31 03:22:17;;;;;;;1.40;0.93;;;22.90;43.60;;;;;;5117891;27;20039;-37
2021/03/31 03:24:48;;;;;;;1.00;0.88;;;22.90;43.70;;;;;;5120343;27;20035;-37
2021/03/31 03:27:17;;;;;;;1.60;0.90;;;22.90;43.70;;;;;;5113498;27;20036;-37
2021/03/31 03:29:46;;;;;;;1.30;1.00;;;22.80;43.60;;;;;;5113090;27;20043;-36
2021/03/31 03:32:14;;;;;;;1.30;1.00;;;22.90;43.70;;;;;;5115475;27;20101;-37
2021/03/31 03:34:42;;;;;;;1.23;0.85;;;22.80;43.60;;;;;;5114278;28;20051;-37
2021/03/31 03:37:10;;;;;;;1.00;0.90;;;22.90;43.70;;;;;;5115419;27;20044;-36
2021/03/31 03:39:36;;;;;;;1.48;0.88;;;22.80;43.60;;;;;;5131769;27;20043;-37
2021/03/31 03:42:05;;;;;;;1.15;0.75;;;22.90;43.70;;;;;;5133004;27;20047;-36
2021/03/31 03:44:32;;;;;;;1.02;0.88;;;22.80;43.60;;;;;;5131866;27;20075;-36
2021/03/31 03:46:59;;;;;;;1.80;1.20;;;22.90;43.70;;;;;;5131725;27;20078;-37
2021/03/31 03:49:26;;;;;;;1.20;1.00;;;22.90;43.70;;;;;;5130839;27;20092;-37
2021/03/31 03:51:53;;;;;;;1.00;0.90;;;22.80;43.60;;;;;;5135217;27;20499;-37
2021/03/31 03:54:19;;;;;;;1.35;1.10;;;22.80;43.60;;;;;;5135193;27;20134;-36
2021/03/31 03:56:48;;;;;;;1.30;1.10;;;22.90;43.70;;;;;;5136022;27;20103;-37
2021/03/31 03:59:23;;;;;;;1.38;0.90;;;22.90;43.70;;;;;;5117345;27;20058;-36
2021/03/31 04:01:52;;;;;;;1.27;0.90;;;22.80;43.60;;;;;;5134815;27;20043;-36
2021/03/31 04:04:19;;;;;;;1.17;0.98;;;22.80;43.60;;;;;;5136417;27;20043;-37
2021/03/31 04:06:46;;;;;;;1.13;0.80;;;22.80;43.60;;;;;;5135554;27;20410;-36
2021/03/31 04:09:13;;;;;;;1.38;1.10;;;22.90;43.70;;;;;;5135343;27;20054;-36
2021/03/31 04:11:43;;;;;;;1.30;0.95;;;22.90;43.70;;;;;;5134326;27;20096;-36
2021/03/31 04:14:10;;;;;;;1.27;0.88;;;22.80;43.60;;;;;;5134062;27;20502;-36
2021/03/31 04:16:41;;;;;;;0.93;0.77;;;22.80;43.60;;;;;;5134215;27;20399;-37
2021/03/31 04:19:14;;;;;;;1.17;0.80;;;22.80;43.60;;;;;;5135144;27;20040;-36
2021/03/31 04:21:41;;;;;;;1.20;1.00;;;22.80;43.60;;;;;;5135203;27;20065;-36
2021/03/31 04:24:15;;;;;;;1.30;1.10;;;22.80;43.60;;;;;;5133604;27;20147;-36
2021/03/31 04:26:45;;;;;;;1.25;1.00;;;22.80;43.60;;;;;;5131439;27;20039;-36
2021/03/31 04:29:13;;;;;;;1.10;0.95;;;22.80;43.60;;;;;;5115460;27;20058;-36
2021/03/31 04:31:42;;;;;;;1.65;1.00;;;22.80;43.60;;;;;;5116169;27;20055;-37
2021/03/31 04:34:09;;;;;;;0.98;0.82;;;22.80;43.60;;;;;;5116428;27;20051;-36
2021/03/31 04:36:36;;;;;;;1.40;1.13;;;22.80;43.60;;;;;;5134865;27;20051;-37
2021/03/31 04:39:05;;;;;;;1.40;0.88;;;22.80;43.60;;;;;;5132149;27;20043;-36
2021/03/31 04:41:34;;;;;;;1.30;0.90;;;22.80;43.60;;;;;;5134751;27;20047;-36
2021/03/31 04:44:01;;;;;;;1.92;1.10;;;22.80;43.60;;;;;;5133077;27;20078;-37
2021/03/31 04:46:28;;;;;;;1.85;1.23;;;22.80;43.60;;;;;;5133545;27;20445;-37
2021/03/31 04:48:54;;;;;;;1.20;0.90;;;22.80;43.60;;;;;;5134561;27;20536;-36
2021/03/31 04:51:21;;;;;;;1.75;1.15;;;22.80;43.60;;;;;;5134907;27;20104;-36
2021/03/31 04:53:50;;;;;;;1.45;1.02;;;22.80;43.60;;;;;;5134913;27;20043;-36
2021/03/31 04:56:18;;;;;;;1.15;0.90;;;22.80;43.60;;;;;;5114012;27;20044;-36
2021/03/31 04:58:46;;;;;;;1.08;0.90;;;22.80;43.60;;;;;;5135990;27;20069;-36
2021/03/31 05:01:13;;;;;;;1.20;0.88;;;22.80;43.60;;;;;;5132035;27;20144;-36
2021/03/31 05:03:40;;;;;;;1.45;1.13;;;22.80;43.60;;;;;;5134090;27;20070;-36
2021/03/31 05:06:06;;;;;;;1.08;0.90;;;22.80;43.60;;;;;;5127315;27;20054;-37
2021/03/31 05:08:33;;;;;;;1.60;1.08;;;22.80;43.60;;;;;;5131515;27;20082;-36
2021/03/31 05:11:00;;;;;;;1.45;1.27;;;22.80;44.30;;;;;;5133425;27;20445;-37
2021/03/31 05:13:26;;;;;;;1.42;0.98;;;22.80;43.60;;;;;;5132426;27;20130;-37
2021/03/31 05:15:53;;;;;;;1.45;1.08;;;22.80;43.60;;;;;;5134252;27;20047;-37
2021/03/31 05:18:20;;;;;;;1.55;1.05;;;22.80;43.60;;;;;;5115906;27;20047;-37
2021/03/31 05:20:46;;;;;;;1.85;1.10;;;22.80;43.70;;;;;;5132714;27;20062;-38
2021/03/31 05:23:13;;;;;;;1.70;1.20;;;22.80;43.60;;;;;;5114275;27;20211;-37
2021/03/31 05:25:39;;;;;;;1.00;0.77;;;22.80;43.60;;;;;;5135593;27;20195;-38
2021/03/31 05:28:07;;;;;;;1.27;0.93;;;22.80;43.60;;;;;;5115983;27;20043;-43
2021/03/31 05:30:34;;;;;;;2.08;1.13;;;22.80;44.20;;;;;;5120771;27;20101;-38
2021/03/31 05:33:02;;;;;;;1.23;0.90;;;22.80;43.60;;;;;;5132664;27;20491;-37
2021/03/31 05:35:28;;;;;;;1.35;1.00;;;22.80;43.60;;;;;;5120960;27;20059;-37
2021/03/31 05:37:55;;;;;;;1.15;0.93;;;22.80;43.60;;;;;;5128118;27;20043;-40
2021/03/31 05:40:22;;;;;;;1.63;1.20;;;22.80;43.60;;;;;;5134959;27;20047;-38
2021/03/31 05:42:49;;;;;;;1.27;0.90;;;22.80;43.60;;;;;;5126449;27;20104;-38
2021/03/31 05:45:16;;;;;;;1.65;1.00;;;22.80;43.60;;;;;;5121745;27;20081;-38
2021/03/31 05:47:44;;;;;;;1.30;0.93;;;22.80;43.70;;;;;;5132205;27;20143;-37
2021/03/31 05:50:14;;;;;;;1.42;1.00;;;22.80;43.60;;;;;;5118890;27;20483;-37
2021/03/31 05:52:42;;;;;;;1.83;1.05;;;22.80;43.70;;;;;;5115739;27;20470;-37
2021/03/31 05:55:12;;;;;;;1.48;1.10;;;22.80;43.70;;;;;;5115483;28;20053;-38
2021/03/31 05:57:39;;;;;;;1.45;1.00;;;22.80;43.70;;;;;;5110986;28;20120;-37
2021/03/31 06:00:16;;;;;;;1.30;1.00;;;22.80;43.70;;;;;;5116955;27;20050;-37
2021/03/31 06:02:44;;;;;;;1.63;1.00;;;22.80;43.60;;;;;;5116216;27;20496;-37
2021/03/31 06:05:14;;;;;;;1.00;0.90;;;22.80;43.70;;;;;;5129683;27;20043;-37
2021/03/31 06:07:46;;;;;;;1.23;1.00;;;22.80;43.70;;;;;;5128313;27;20039;-37
2021/03/31 06:10:13;;;;;;;1.30;1.00;;;22.80;43.60;;;;;;5124915;27;20047;-37
2021/03/31 06:12:43;;;;;;;1.48;0.98;;;22.80;43.70;;;;;;5123803;27;20079;-37
2021/03/31 06:15:23;;;;;;;1.23;0.90;;;22.80;43.70;;;;;;5133162;27;20082;-38
2021/03/31 06:17:53;;;;;;;1.45;1.00;;;22.80;43.70;;;;;;5129070;27;20055;-37
2021/03/31 06:20:42;;;;;;;1.75;1.33;;;22.80;43.70;;;;;;5115607;27;20043;-37
2021/03/31 06:24:11;;;;;;;1.60;1.10;;;22.80;43.70;;;;;;5116891;27;20133;-37
2021/03/31 06:26:25;;;;;;;1.48;1.00;;;22.80;43.70;;;;;;5106069;27;20075;-38
2021/03/31 06:29:12;;;;;;;1.25;0.90;;;22.80;43.70;;;;;;5122848;27;20043;-37
2021/03/31 06:31:43;;;;;;;0.93;0.80;;;22.80;43.70;;;;;;5125759;27;20074;-38
2021/03/31 06:34:15;;;;;;;1.38;0.90;;;22.80;43.70;;;;;;5106444;27;20507;-37
2021/03/31 06:36:45;;;;;;;1.08;0.90;;;22.80;43.70;;;;;;5131416;27;20092;-37
2021/03/31 06:39:25;;;;;;;1.02;0.85;;;22.80;43.60;;;;;;5133861;27;20383;-37
2021/03/31 06:42:04;;;;;;;1.70;0.98;;;22.80;43.70;;;;;;5131653;27;20063;-37
2021/03/31 06:47:22;;;;;;;1.10;0.88;;;22.80;43.60;;;;;;5130433;27;20047;-37
2021/03/31 06:49:50;;;;;;;1.15;0.88;;;22.80;43.70;;;;;;5131562;27;20096;-37
2021/03/31 06:52:17;;;;;;;1.58;1.00;;;22.80;43.60;;;;;;5131519;27;20042;-37
2021/03/31 06:54:51;;;;;;;1.80;1.02;;;22.80;43.60;;;;;;5133958;27;20047;-37
2021/03/31 06:57:28;;;;;;;1.38;1.08;;;22.80;43.60;;;;;;5131877;28;20494;-37
2021/03/31 07:00:14;;;;;;;1.67;1.30;;;22.80;43.60;;;;;;5130619;28;20092;-37
2021/03/31 07:02:43;;;;;;;1.30;0.90;;;22.80;43.70;;;;;;5112730;28;20051;-37
2021/03/31 07:05:10;;;;;;;0.98;0.75;;;22.80;43.60;;;;;;5130864;28;20047;-37
2021/03/31 07:07:42;;;;;;;0.98;0.75;;;22.80;43.60;;;;;;5131668;27;20387;-38
2021/03/31 07:10:21;;;;;;;1.73;1.20;;;22.80;44.20;;;;;;5129680;27;20100;-37
2021/03/31 07:12:49;;;;;;;1.73;1.02;;;22.80;43.60;;;;;;5130757;27;20059;-38
2021/03/31 07:15:19;;;;;;;1.10;0.90;;;22.80;43.60;;;;;;5132646;27;20054;-37
2021/03/31 07:17:54;;;;;;;1.13;0.82;;;22.80;43.60;;;;;;5131860;27;20054;-37
2021/03/31 07:20:22;;;;;;;1.20;0.98;;;22.80;43.60;;;;;;5131176;27;20436;-37
2021/03/31 07:22:49;;;;;;;1.23;0.90;;;22.80;43.60;;;;;;5132446;27;20108;-37
2021/03/31 07:25:17;;;;;;;1.77;0.77;;;22.80;43.60;;;;;;5133794;27;20039;-38
2021/03/31 07:27:47;;;;;;;1.40;0.90;;;22.80;43.60;;;;;;5133967;27;20123;-37
2021/03/31 07:30:17;;;;;;;1.98;1.10;;;22.80;43.60;;;;;;5127870;27;20051;-37
2021/03/31 07:33:19;;;;;;;1.42;1.10;;;22.80;43.60;;;;;;5135912;27;20551;-37
2021/03/31 07:35:47;;;;;;;1.48;0.77;;;22.80;43.60;;;;;;5134999;27;20050;-37
2021/03/31 07:38:16;;;;;;;1.08;0.85;;;22.80;43.60;;;;;;5135861;27;20096;-37
2021/03/31 07:40:45;;;;;;;2.17;1.05;;;22.80;43.50;;;;;;5137044;27;20046;-37
2021/03/31 07:43:36;;;;;;;1.02;0.80;;;22.80;43.50;;;;;;5134264;27;20048;-37
2021/03/31 07:46:15;;;;;;;1.17;0.90;;;22.80;43.50;;;;;;5118241;27;20123;-37
2021/03/31 07:48:44;;;;;;;1.67;0.80;;;22.80;43.50;;;;;;5135450;27;20047;-37
2021/03/31 07:51:28;;;;;;;1.60;1.00;;;22.80;43.50;;;;;;5133912;27;20050;-38
2021/03/31 07:53:58;;;;;;;1.20;0.90;;;22.80;43.50;;;;;;5134111;27;20047;-37
2021/03/31 07:56:43;;;;;;;1.30;0.93;;;22.90;43.50;;;;;;5118674;27;20051;-37
2021/03/31 07:59:12;;;;;;;1.00;0.90;;;22.80;43.50;;;;;;5133884;27;20100;-37
2021/03/31 08:01:52;;;;;;;1.25;0.90;;;22.80;43.40;;;;;;5135174;27;20039;-38
2021/03/31 08:04:21;;;;;;;1.55;0.85;;;22.90;43.50;;;;;;5134348;27;20058;-39
2021/03/31 08:06:50;;;;;;;1.75;1.00;;;22.80;43.50;;;;;;5123054;27;20075;-37
2021/03/31 08:09:28;;;;;;;1.17;0.90;;;22.80;43.50;;;;;;5129949;27;20092;-39
2021/03/31 08:12:05;;;;;;;2.40;1.00;;;22.80;43.40;;;;;;5118994;27;20058;-37
2021/03/31 08:14:42;;;;;;;1.63;0.98;;;22.80;43.40;;;;;;5132341;27;20052;-37
2021/03/31 08:17:29;;;;;;;1.23;0.90;;;22.80;43.40;;;;;;5105936;28;20127;-38
2021/03/31 08:19:56;;;;;;;0.98;0.82;;;22.90;43.50;;;;;;5119373;27;20071;-37
2021/03/31 08:22:38;;;;;;;1.08;0.93;;;22.80;43.40;;;;;;5126617;27;20043;-37
2021/03/31 08:25:24;;;;;;;1.23;1.00;;;22.90;43.50;;;;;;5126543;27;20043;-37
2021/03/31 08:27:59;;;;;;;1.35;0.90;;;22.80;43.40;;;;;;5125566;27;20170;-38
2021/03/31 08:30:27;;;;;;;1.48;0.90;;;22.90;43.40;;;;;;5125697;27;20057;-37
2021/03/31 08:32:55;;;;;;;1.08;0.90;;;22.90;43.40;;;;;;5124040;27;20039;-37
2021/03/31 08:35:24;;;;;;;2.10;1.00;;;22.90;43.40;;;;;;5132776;27;20498;-37
2021/03/31 08:37:51;;;;;;;1.65;0.90;;;22.90;43.40;;;;;;5133686;27;20043;-38
2021/03/31 08:40:19;;;;;;;1.33;1.00;;;22.90;43.40;;;;;;5118413;27;20062;-37
2021/03/31 08:43:01;;;;;;;0.93;0.70;;;22.90;43.40;;;;;;5120026;27;20046;-38
2021/03/31 08:45:42;;;;;;;1.58;0.80;;;22.90;43.40;;;;;;5116777;27;20048;-40
2021/03/31 08:48:09;;;;;;;1.23;1.08;;;22.90;43.40;;;;;;5117198;27;20097;-37
2021/03/31 08:50:40;;;;;;;1.25;0.93;;;22.90;43.40;;;;;;5115836;27;20051;-38
2021/03/31 08:53:11;;;;;;;1.45;1.20;;;22.90;43.40;;;;;;5116094;27;20055;-38
2021/03/31 08:55:41;;;;;;;1.42;0.98;;;22.90;43.40;;;;;;5120003;27;20104;-38
2021/03/31 08:58:10;;;;;;;1.20;0.90;;;22.90;43.40;;;;;;5113832;27;20484;-37
2021/03/31 09:00:51;;;;;;;1.67;0.90;;;22.90;43.40;;;;;;5117092;27;20048;-37
2021/03/31 09:03:20;;;;;;;0.95;0.75;;;22.90;43.40;;;;;;5119815;27;20044;-37
2021/03/31 09:05:58;;;;;;;1.23;0.90;;;22.90;43.40;;;;;;5123559;27;20043;-37
2021/03/31 09:08:26;;;;;;;1.75;1.20;;;22.90;43.40;;;;;;5135316;27;20047;-37
2021/03/31 09:10:56;;;;;;;1.58;1.10;;;22.90;43.40;;;;;;5116069;27;20054;-37
2021/03/31 09:13:32;;;;;;;1.63;1.23;;;22.90;43.40;;;;;;5129439;27;20058;-37
2021/03/31 09:16:01;;;;;;;1.17;1.05;;;22.90;43.40;;;;;;5119728;27;20044;-36
2021/03/31 09:18:28;;;;;;;2.08;1.02;;;22.90;43.40;;;;;;5104283;27;20584;-36
2021/03/31 09:20:55;;;;;;;1.52;1.08;;;22.90;43.40;;;;;;5132837;27;20044;-37
2021/03/31 09:23:24;;;;;;;1.65;1.13;;;22.90;43.40;;;;;;5133094;27;20047;-37
2021/03/31 09:25:59;;;;;;;2.03;1.17;;;22.90;43.40;;;;;;5097667;27;20044;-36
2021/03/31 09:28:27;;;;;;;2.75;1.10;;;22.90;43.40;;;;;;5132831;27;20065;-36
2021/03/31 09:31:01;;;;;;;1.52;0.90;;;22.90;43.40;;;;;;5115278;27;20051;-37
2021/03/31 09:33:33;;;;;;;1.13;0.93;;;22.90;43.40;;;;;;5135208;27;20410;-37
2021/03/31 09:36:18;;;;;;;1.58;1.00;;;22.90;43.30;;;;;;5116966;27;20509;-37
2021/03/31 09:38:58;;;;;;;1.10;0.80;;;23.00;43.40;;;;;;5132587;27;20478;-37
2021/03/31 09:41:28;;;;;;;1.15;0.82;;;23.00;43.40;;;;;;5115563;27;20088;-37
2021/03/31 09:43:57;;;;;;;1.20;0.93;;;22.90;43.30;;;;;;5132065;27;20050;-38
2021/03/31 09:46:25;;;;;;;1.58;1.10;;;22.90;43.40;;;;;;5132603;27;20051;-37
2021/03/31 09:48:53;;;;;;;1.30;0.95;;;22.90;43.40;;;;;;5131934;27;20039;-36
2021/03/31 09:51:21;;;;;;;1.05;0.95;;;23.00;43.50;;;;;;5131715;27;20521;-36
2021/03/31 09:53:49;;;;;;;1.45;1.05;;;22.90;43.40;;;;;;5115063;27;20053;-37
2021/03/31 09:56:18;;;;;;;1.13;0.80;;;22.90;43.40;;;;;;5133549;27;20456;-36
2021/03/31 09:58:47;;;;;;;1.85;0.85;;;22.90;43.40;;;;;;5132062;27;20081;-36
2021/03/31 10:01:15;;;;;;;1.50;1.02;;;23.00;43.40;;;;;;5131920;27;20093;-37
2021/03/31 10:03:44;;;;;;;1.38;0.93;;;23.00;43.40;;;;;;5132318;27;20043;-37
2021/03/31 10:06:19;;;;;;;1.38;0.93;;;23.00;43.40;;;;;;5132807;27;20050;-37
2021/03/31 10:08:47;;;;;;;1.60;0.85;;;23.00;43.40;;;;;;5131858;27;20047;-36
2021/03/31 10:11:29;;;;;;;1.45;0.98;;;23.00;43.40;;;;;;5132975;27;20043;-37
2021/03/31 10:13:58;;;;;;;1.35;0.90;;;23.00;43.40;;;;;;5130412;27;20440;-36
2021/03/31 10:16:39;;;;;;;1.45;1.13;;;23.00;43.40;;;;;;5131721;27;20510;-36
2021/03/31 10:19:09;;;;;;;1.50;0.90;;;23.00;43.50;;;;;;5131556;27;20082;-36
2021/03/31 10:21:38;;;;;;;1.55;0.88;;;23.00;43.50;;;;;;5131338;27;20080;-36
2021/03/31 10:24:06;;;;;;;1.63;1.15;;;23.00;43.50;;;;;;5130413;27;20043;-36
2021/03/31 10:26:49;;;;;;;1.20;0.90;;;23.00;43.50;;;;;;5131514;27;20059;-37
2021/03/31 10:29:47;;;;;;;2.47;1.20;;;23.00;43.50;;;;;;5126432;27;20138;-36
2021/03/31 10:32:34;;;;;;;1.45;1.00;;;23.00;43.40;;;;;;5129077;27;20058;-37
2021/03/31 10:35:00;;;;;;;1.13;0.90;;;23.00;43.50;;;;;;5133099;27;20050;-37
2021/03/31 10:37:37;;;;;;;1.13;0.98;;;23.00;43.50;;;;;;5133068;27;20051;-37
2021/03/31 10:40:39;;;;;;;1.35;1.00;;;23.00;43.50;;;;;;5130554;27;20078;-37
2021/03/31 10:49:17;;;;;;;1.50;1.23;;;23.00;43.50;;;;;;5131727;27;20046;-36
2021/03/31 10:54:23;;;;;;;1.77;1.10;;;23.00;43.50;;;;;;5132461;27;20050;-37
2021/03/31 10:57:33;;;;;;;1.00;0.90;;;23.00;43.50;;;;;;5132886;27;20062;-36
2021/03/31 10:59:41;;;;;;;0.90;0.70;;;23.00;43.50;;;;;;5120603;27;20051;-37
2021/03/31 11:02:10;;;;;;;1.35;0.90;;;23.00;43.60;;;;;;5136964;27;20072;-36
2021/03/31 11:04:37;;;;;;;1.60;1.00;;;23.00;43.50;;;;;;5135263;27;20059;-37
2021/03/31 11:07:04;;;;;;;5.95;1.10;;;23.00;43.50;;;;;;5132987;27;20100;-36
2021/03/31 11:09:31;;;;;;;1.48;1.02;;;23.00;43.60;;;;;;5114713;27;20043;-36
2021/03/31 11:11:58;;;;;;;0.60;0.60;;;23.00;43.50;;;;;;5123433;27;20056;-36
2021/03/31 11:14:26;;;;;;;1.13;1.00;;;23.00;43.50;;;;;;5136536;27;20166;-37
2021/03/31 11:16:57;;;;;;;1.00;0.80;;;23.00;43.60;;;;;;5136925;27;20038;-37
2021/03/31 11:19:41;;;;;;;2.90;1.20;;;23.00;43.60;;;;;;5119270;27;20398;-37
2021/03/31 11:27:38;;;;;;;2.97;0.90;;;23.00;43.60;;;;;;5119908;27;20067;-36
2021/03/31 11:30:09;;;;;;;0.80;0.73;;;23.00;43.60;;;;;;5126976;27;20047;-36
2021/03/31 11:32:37;;;;;;;1.08;0.90;;;23.00;43.60;;;;;;5134638;27;20547;-36
2021/03/31 11:35:05;;;;;;;2.08;1.00;;;23.00;43.60;;;;;;5135447;27;20092;-36
2021/03/31 11:37:32;;;;;;;3.40;1.08;;;23.00;43.60;;;;;;5133755;27;20047;-36
2021/03/31 11:39:59;;;;;;;1.00;0.80;;;23.00;43.60;;;;;;5118940;27;20545;-36
2021/03/31 11:42:26;;;;;;;1.65;1.00;;;23.00;43.60;;;;;;5134587;27;20050;-37
2021/03/31 11:44:52;;;;;;;1.60;0.90;;;23.00;43.60;;;;;;5136146;27;20092;-37
2021/03/31 11:47:19;;;;;;;0.80;0.60;;;23.00;43.60;;;;;;5136073;27;20384;-37
2021/03/31 11:49:46;;;;;;;1.42;0.80;;;23.00;43.60;;;;;;5135791;27;20039;-37
2021/03/31 11:52:13;;;;;;;3.60;1.10;;;23.00;43.60;;;;;;5133150;27;20044;-37
2021/03/31 11:54:39;;;;;;;0.95;0.80;;;23.00;43.60;;;;;;5134834;27;20078;-37
2021/03/31 11:57:06;;;;;;;1.33;1.00;;;23.00;43.60;;;;;;5135542;27;20043;-37
2021/03/31 11:59:33;;;;;;;1.58;0.85;;;23.00;43.60;;;;;;5133616;27;20448;-38
2021/03/31 12:01:59;;;;;;;1.45;0.90;;;23.00;43.60;;;;;;5135487;27;20097;-37
2021/03/31 12:04:26;;;;;;;1.42;0.82;;;23.00;43.60;;;;;;5116278;27;20040;-37
2021/03/31 12:06:52;;;;;;;1.08;0.82;;;23.00;43.60;;;;;;5133917;27;20051;-36
2021/03/31 12:09:19;;;;;;;1.80;1.10;;;23.00;43.60;;;;;;5134098;27;20556;-36
2021/03/31 12:11:46;;;;;;;1.70;0.90;;;23.00;43.60;;;;;;5131627;27;20046;-36
2021/03/31 12:14:16;;;;;;;0.77;0.70;;;23.00;43.60;;;;;;5135259;27;20046;-37
2021/03/31 12:16:42;;;;;;;1.55;1.02;;;23.00;43.60;;;;;;5133097;27;20432;-36
2021/03/31 12:19:09;;;;;;;1.33;0.88;;;23.00;43.60;;;;;;5133087;27;20432;-36
2021/03/31 12:21:35;;;;;;;2.45;1.08;;;23.00;43.60;;;;;;5116714;27;20040;-36
2021/03/31 12:24:03;;;;;;;1.55;1.15;;;23.00;43.60;;;;;;5135027;27;20049;-37
2021/03/31 12:26:29;;;;;;;1.48;0.90;;;23.00;43.60;;;;;;5118002;27;20079;-36
2021/03/31 12:28:58;;;;;;;1.45;0.90;;;23.00;43.60;;;;;;5134538;27;20571;-37
2021/03/31 12:31:25;;;;;;;1.92;0.80;;;23.00;43.60;;;;;;5118537;27;20407;-37
2021/03/31 12:33:52;;;;;;;1.17;0.85;;;23.00;43.60;;;;;;5130623;27;20051;-37
2021/03/31 12:36:18;;;;;;;1.63;0.98;;;23.10;43.70;;;;;;5135098;27;20403;-36
2021/03/31 12:38:45;;;;;;;0.82;0.80;;;23.00;43.60;;;;;;5134051;27;20055;-39
2021/03/31 12:41:12;;;;;;;1.95;1.08;;;23.10;43.70;;;;;;5133204;27;20100;-36
2021/03/31 12:43:38;;;;;;;1.63;1.08;;;23.00;43.70;;;;;;5133210;27;20482;-36
2021/03/31 12:46:05;;;;;;;1.30;0.90;;;23.00;43.60;;;;;;5132668;27;20043;-36
2021/03/31 12:48:31;;;;;;;2.20;0.88;;;23.10;43.70;;;;;;5134469;27;20093;-36
2021/03/31 12:51:08;;;;;;;1.15;0.90;;;23.00;43.70;;;;;;5132868;27;20058;-37
2021/03/31 12:53:49;;;;;;;1.50;1.05;;;23.00;43.60;;;;;;5133005;27;20448;-36
2021/03/31 12:56:16;;;;;;;2.35;0.77;;;23.00;43.60;;;;;;5116171;27;20096;-36
2021/03/31 12:58:43;;;;;;;2.30;1.10;;;23.00;43.60;;;;;;5119614;27;20055;-37
2021/03/31 13:01:15;;;;;;;1.85;0.90;;;23.10;43.70;;;;;;5131762;27;20057;-36
2021/03/31 13:03:41;;;;;;;0.98;0.70;;;23.10;43.80;;;;;;5135285;27;20452;-36
2021/03/31 13:06:30;;;;;;;1.35;0.90;;;23.10;43.80;;;;;;5121674;27;20123;-36
2021/03/31 13:09:17;;;;;;;1.50;0.90;;;23.10;43.70;;;;;;5132087;27;20121;-37
2021/03/31 13:12:07;;;;;;;1.27;0.93;;;23.10;43.80;;;;;;5132419;27;20131;-36
2021/03/31 13:15:36;;;;;;;1.30;0.98;;;23.10;43.80;;;;;;5119927;27;20055;-36
2021/03/31 13:26:15;;;;;;;1.48;0.90;;;23.10;43.80;;;;;;5133510;27;20111;-37
2021/03/31 13:31:33;;;;;;;1.00;0.75;;;23.10;43.80;;;;;;5113154;27;20070;-36
2021/03/31 13:34:24;;;;;;;1.17;0.82;;;23.00;43.70;;;;;;5113985;27;20135;-37
2021/03/31 13:37:01;;;;;;;1.15;0.77;;;23.10;43.80;;;;;;5115694;27;20491;-37